Terminal Aerodrome Forecast
Issued by NWS

Home | Current Version | Previous Version | Text Only | Print | Product List | Glossary Off
Versions: 1 2 3 4 5 6 7 8 9 10 11 12 13 14 15

656
FTUS43 KOAX 281120
TAFCDR
TAF
KCDR 281120Z 2812/2912 VRB03KT 6SM BR FEW002
      TEMPO 2812/2815 3/4SM BR VV002
     FM282100 36005KT P6SM VCTS BKN100CB
     FM290300 VRB03KT P6SM SCT100=

USA.gov is the U.S. government's official web portal to all federal, state and local government web resources and services.